createdAt,value
2023-05-06T00:00:22.689Z,99085.91
2023-05-06T00:02:57.693Z,99082.88
2023-05-06T00:05:31.014Z,99087.34
2023-05-06T00:08:04.351Z,99079.38
2023-05-06T00:10:37.733Z,99087.44
2023-05-06T00:13:11.474Z,99069.63
2023-05-06T00:15:44.918Z,99065.13
2023-05-06T00:18:22.473Z,99055.47
2023-05-06T00:20:56.519Z,99055.31
2023-05-06T00:23:31.321Z,99057.34
2023-05-06T00:26:05.354Z,99044.97
2023-05-06T00:28:39.061Z,99050.50
2023-05-06T00:31:12.929Z,99049.28
2023-05-06T00:33:47.686Z,99061.94
2023-05-06T00:36:21.409Z,99051.13
2023-05-06T00:38:54.922Z,99056.63
2023-05-06T00:41:32.878Z,99060.53
2023-05-06T00:44:06.504Z,99059.09
2023-05-06T00:46:40.759Z,99063.94
2023-05-06T00:49:15.635Z,99069.63
2023-05-06T00:51:49.453Z,99065.47
2023-05-06T00:54:23.240Z,99071.22
2023-05-06T00:56:56.654Z,99070.31
2023-05-06T00:59:30.256Z,99069.28
2023-05-06T01:02:04.516Z,99065.94
2023-05-06T01:04:41.765Z,99063.25
2023-05-06T01:07:31.127Z,99065.94
2023-05-06T01:10:13.614Z,99060.47
2023-05-06T01:12:55.848Z,99060.47
2023-05-06T01:15:35.109Z,99058.28
2023-05-06T01:18:12.178Z,99055.75
2023-05-06T01:20:50.024Z,99063.31
2023-05-06T01:23:25.276Z,99058.97
2023-05-06T01:25:58.929Z,99057.72
2023-05-06T01:28:32.501Z,99052.31
2023-05-06T01:31:13.205Z,99062.91
2023-05-06T01:33:55.550Z,99059.06
2023-05-06T01:36:39.018Z,99058.97
2023-05-06T01:39:18.630Z,99064.03
2023-05-06T01:41:53.845Z,99056.03
2023-05-06T01:44:30.715Z,99051.78
2023-05-06T01:47:08.342Z,99062.09
2023-05-06T01:49:42.009Z,99046.16
2023-05-06T01:52:17.488Z,99047.00
2023-05-06T01:54:52.618Z,99048.75
2023-05-06T01:57:26.379Z,99045.03
2023-05-06T01:59:59.896Z,99046.72
2023-05-06T02:02:33.671Z,99048.84
2023-05-06T02:05:08.404Z,99047.75
2023-05-06T02:07:46.537Z,99050.41
2023-05-06T02:10:21.838Z,99054.31
2023-05-06T02:13:02.933Z,99056.22
2023-05-06T02:15:36.395Z,99054.56
2023-05-06T02:18:10.628Z,99053.31
2023-05-06T02:20:44.525Z,99052.63
2023-05-06T02:23:25.338Z,99055.06
2023-05-06T02:26:02.954Z,99050.78
2023-05-06T02:28:36.968Z,99054.78
2023-05-06T02:31:10.764Z,99056.53
2023-05-06T02:33:46.341Z,99058.19
2023-05-06T02:36:20.361Z,99054.34
2023-05-06T02:38:55.663Z,99060.03
2023-05-06T02:41:32.656Z,99061.84
2023-05-06T02:44:06.681Z,99060.09
2023-05-06T02:46:47.226Z,99063.06
2023-05-06T02:49:23.688Z,99055.63
2023-05-06T02:51:59.340Z,99046.78
2023-05-06T02:54:33.985Z,99038.47
2023-05-06T02:57:12.452Z,99045.91
2023-05-06T02:59:51.317Z,99058.00
2023-05-06T03:02:28.991Z,99051.41
2023-05-06T03:05:06.087Z,99064.41
2023-05-06T03:07:40.593Z,99053.75
2023-05-06T03:10:16.704Z,99057.03
2023-05-06T03:12:52.775Z,99065.13
2023-05-06T03:15:26.114Z,99062.09
2023-05-06T03:18:00.328Z,99063.44
2023-05-06T03:20:35.195Z,99077.34
2023-05-06T03:23:10.329Z,99073.66
2023-05-06T03:25:44.005Z,99084.88
2023-05-06T03:28:21.449Z,99080.63
2023-05-06T03:30:55.765Z,99070.66
2023-05-06T03:33:29.246Z,99073.75
2023-05-06T03:36:02.652Z,99075.00
2023-05-06T03:38:36.222Z,99078.97
2023-05-06T03:41:14.146Z,99077.06
2023-05-06T03:43:49.301Z,99076.28
2023-05-06T03:46:28.509Z,99076.38
2023-05-06T03:49:03.175Z,99080.66
2023-05-06T03:51:37.261Z,99076.91
2023-05-06T03:54:10.895Z,99082.03
2023-05-06T03:56:44.330Z,99075.47
2023-05-06T03:59:20.223Z,99080.63
2023-05-06T04:01:54.255Z,99083.97
2023-05-06T04:04:28.763Z,99082.50
2023-05-06T04:07:04.014Z,99084.75
2023-05-06T04:09:37.556Z,99084.25
2023-05-06T04:12:13.931Z,99095.75
2023-05-06T04:14:49.622Z,99092.38
2023-05-06T04:17:23.011Z,99098.81
2023-05-06T04:19:56.621Z,99097.94
2023-05-06T04:22:30.628Z,99100.50
2023-05-06T04:25:04.307Z,99105.41
2023-05-06T04:27:39.042Z,99099.75
2023-05-06T04:30:16.415Z,99104.63
2023-05-06T04:32:49.265Z,99107.69
2023-05-06T04:35:23.528Z,99111.00
2023-05-06T04:37:57.910Z,99114.22
2023-05-06T04:40:36.768Z,99111.72
2023-05-06T04:43:10.558Z,99112.97
2023-05-06T04:45:49.162Z,99113.63
2023-05-06T04:48:26.232Z,99114.41
2023-05-06T04:51:04.424Z,99113.22
2023-05-06T04:53:37.804Z,99113.22
2023-05-06T04:56:10.664Z,99111.81
2023-05-06T04:58:43.491Z,99116.06
2023-05-06T05:01:19.329Z,99118.50
2023-05-06T05:03:52.484Z,99120.25
2023-05-06T05:06:27.141Z,99120.50
2023-05-06T05:09:00.258Z,99114.16
2023-05-06T05:11:34.171Z,99111.44
2023-05-06T05:14:07.087Z,99120.84
2023-05-06T05:16:41.960Z,99121.75
2023-05-06T05:19:15.713Z,99115.50
2023-05-06T05:21:50.701Z,99112.13
2023-05-06T05:24:23.738Z,99108.66
2023-05-06T05:26:57.270Z,99112.25
2023-05-06T05:29:30.600Z,99119.78
2023-05-06T05:32:08.318Z,99113.94
2023-05-06T05:34:41.430Z,99118.59
2023-05-06T05:37:14.772Z,99130.00
2023-05-06T05:39:47.639Z,99135.03
2023-05-06T05:42:21.841Z,99124.38
2023-05-06T05:44:55.350Z,99131.91
2023-05-06T05:47:29.780Z,99129.50
2023-05-06T05:50:02.686Z,99122.53
2023-05-06T05:52:36.500Z,99130.16
2023-05-06T05:55:11.037Z,99137.81
2023-05-06T05:57:45.311Z,99125.50
2023-05-06T06:00:19.443Z,99128.63
2023-05-06T06:02:53.642Z,99129.50
2023-05-06T06:05:27.051Z,99141.41
2023-05-06T06:08:02.218Z,99141.50
2023-05-06T06:10:36.864Z,99153.41
2023-05-06T06:13:15.937Z,99145.41
2023-05-06T06:15:48.896Z,99156.25
2023-05-06T06:18:23.200Z,99165.44
2023-05-06T06:20:56.167Z,99169.25
2023-05-06T06:23:29.976Z,99172.53
2023-05-06T06:26:03.842Z,99175.22
2023-05-06T06:28:38.975Z,99179.13
2023-05-06T06:31:11.828Z,99178.03
2023-05-06T06:33:46.250Z,99185.22
2023-05-06T06:36:19.164Z,99184.72
2023-05-06T06:38:52.002Z,99179.00
2023-05-06T06:41:25.058Z,99183.00
2023-05-06T06:43:57.802Z,99181.22
2023-05-06T06:46:34.566Z,99181.44
2023-05-06T06:49:08.736Z,99183.38
2023-05-06T06:51:41.534Z,99177.22
2023-05-06T06:54:14.321Z,99187.34
2023-05-06T06:56:47.144Z,99177.28
2023-05-06T06:59:19.973Z,99184.47
2023-05-06T07:01:52.792Z,99180.19
2023-05-06T07:04:28.109Z,99193.00
2023-05-06T07:07:00.864Z,99191.16
2023-05-06T07:09:35.474Z,99195.75
2023-05-06T07:12:08.807Z,99207.34
2023-05-06T07:14:41.623Z,99199.28
2023-05-06T07:17:14.389Z,99205.31
2023-05-06T07:19:48.869Z,99203.19
2023-05-06T07:22:21.888Z,99208.03
2023-05-06T07:24:55.161Z,99204.28
2023-05-06T07:27:30.385Z,99209.91
2023-05-06T07:30:03.212Z,99213.81
2023-05-06T07:32:36.250Z,99215.06
2023-05-06T07:35:10.858Z,99219.28
2023-05-06T07:37:44.151Z,99219.25
2023-05-06T07:40:17.027Z,99212.56
2023-05-06T07:42:49.956Z,99221.66
2023-05-06T07:45:25.163Z,99216.00
2023-05-06T07:47:58.236Z,99226.91
2023-05-06T07:50:32.790Z,99221.31
2023-05-06T07:53:05.698Z,99218.25
2023-05-06T07:55:38.755Z,99222.72
2023-05-06T07:58:11.520Z,99223.84
2023-05-06T08:00:44.489Z,99224.16
2023-05-06T08:03:18.109Z,99238.56
2023-05-06T08:05:52.921Z,99229.47
2023-05-06T08:08:27.918Z,99239.41
2023-05-06T08:11:01.283Z,99232.38
2023-05-06T08:13:34.592Z,99232.81
2023-05-06T08:16:08.205Z,99241.53
2023-05-06T08:18:40.991Z,99251.78
2023-05-06T08:21:15.274Z,99241.13
2023-05-06T08:23:48.135Z,99256.03
2023-05-06T08:26:21.365Z,99255.84
2023-05-06T08:28:55.976Z,99256.28
2023-05-06T08:31:28.779Z,99250.56
2023-05-06T08:34:01.718Z,99251.66
2023-05-06T08:36:36.297Z,99254.00
2023-05-06T08:39:09.120Z,99249.94
2023-05-06T08:41:42.936Z,99263.50
2023-05-06T08:44:18.650Z,99261.66
2023-05-06T08:46:51.795Z,99248.16
2023-05-06T08:49:25.127Z,99249.63
2023-05-06T08:51:59.666Z,99255.22
2023-05-06T08:54:34.969Z,99250.88
2023-05-06T08:57:12.879Z,99254.50
2023-05-06T08:59:46.728Z,99251.63
2023-05-06T09:02:19.541Z,99249.78
2023-05-06T09:04:54.458Z,99264.59
2023-05-06T09:07:28.636Z,99256.81
2023-05-06T09:10:01.485Z,99256.94
2023-05-06T09:12:37.757Z,99255.56
2023-05-06T09:15:11.870Z,99253.56
2023-05-06T09:17:45.324Z,99252.91
2023-05-06T09:20:18.197Z,99251.78
2023-05-06T09:22:53.960Z,99249.97
2023-05-06T09:25:26.811Z,99239.66
2023-05-06T09:28:05.436Z,99244.56
2023-05-06T09:30:40.846Z,99250.44
2023-05-06T09:33:13.780Z,99243.94
2023-05-06T09:35:46.823Z,99244.38
2023-05-06T09:38:21.758Z,99245.31
2023-05-06T09:40:54.786Z,99244.47
2023-05-06T09:43:27.680Z,99241.34
2023-05-06T09:46:01.893Z,99244.75
2023-05-06T09:48:34.955Z,99241.22
2023-05-06T09:51:08.368Z,99242.41
2023-05-06T09:53:44.816Z,99246.41
2023-05-06T09:56:18.128Z,99242.22
2023-05-06T09:58:52.484Z,99242.91
2023-05-06T10:01:36.227Z,99234.97
2023-05-06T10:04:12.902Z,99224.59
2023-05-06T10:06:50.005Z,99225.47
2023-05-06T10:09:25.444Z,99223.69
2023-05-06T10:12:00.192Z,99232.78
2023-05-06T10:14:33.146Z,99218.78
2023-05-06T10:17:09.462Z,99226.19
2023-05-06T10:19:46.330Z,99220.84
2023-05-06T10:22:27.909Z,99227.00
2023-05-06T10:25:13.081Z,99225.19
2023-05-06T10:27:47.119Z,99223.47
2023-05-06T10:30:20.898Z,99218.41
2023-05-06T10:32:56.410Z,99206.72
2023-05-06T10:35:43.344Z,99213.88
2023-05-06T10:38:23.004Z,99207.19
2023-05-06T10:40:59.185Z,99210.03
2023-05-06T10:43:33.296Z,99204.78
2023-05-06T10:46:09.212Z,99197.13
2023-05-06T10:49:18.353Z,99203.75
2023-05-06T10:52:12.759Z,99198.09
2023-05-06T10:54:50.199Z,99203.53
2023-05-06T10:57:27.068Z,99201.19
2023-05-06T11:00:00.194Z,99199.56
2023-05-06T11:02:33.265Z,99199.00
2023-05-06T11:05:06.915Z,99209.03
2023-05-06T11:07:39.728Z,99196.28
2023-05-06T11:10:12.644Z,99195.81
2023-05-06T11:12:51.255Z,99198.03
2023-05-06T11:15:26.924Z,99192.66
2023-05-06T11:17:59.931Z,99190.75
2023-05-06T11:20:32.762Z,99187.06
2023-05-06T11:23:05.981Z,99188.06
2023-05-06T11:25:42.807Z,99191.38
2023-05-06T11:28:17.035Z,99188.72
2023-05-06T11:30:56.562Z,99180.84
2023-05-06T11:33:33.489Z,99185.19
2023-05-06T11:36:07.828Z,99186.41
2023-05-06T11:38:44.200Z,99187.22
2023-05-06T11:41:18.263Z,99179.22
2023-05-06T11:43:54.649Z,99181.06
2023-05-06T11:46:33.528Z,99186.44
2023-05-06T11:49:06.976Z,99186.75
2023-05-06T11:51:39.746Z,99192.97
2023-05-06T11:54:12.498Z,99176.09
2023-05-06T11:56:51.193Z,99180.59
2023-05-06T11:59:31.164Z,99179.97
2023-05-06T12:02:05.622Z,99180.66
2023-05-06T12:04:39.847Z,99180.34
2023-05-06T12:07:14.755Z,99176.59
2023-05-06T12:09:50.065Z,99185.00
2023-05-06T12:12:25.320Z,99173.28
2023-05-06T12:14:59.887Z,99179.56
2023-05-06T12:17:32.714Z,99165.06
2023-05-06T12:20:12.553Z,99166.09
2023-05-06T12:22:45.713Z,99169.75
2023-05-06T12:25:19.298Z,99171.03
2023-05-06T12:27:52.424Z,99163.00
2023-05-06T12:30:34.414Z,99167.91
2023-05-06T12:33:10.657Z,99162.59
2023-05-06T12:35:43.838Z,99172.34
2023-05-06T12:38:18.385Z,99167.28
2023-05-06T12:40:55.386Z,99173.59
2023-05-06T12:43:32.468Z,99177.53
2023-05-06T12:46:07.786Z,99167.91
2023-05-06T12:48:40.580Z,99163.09
2023-05-06T12:51:21.389Z,99171.22
2023-05-06T12:53:54.258Z,99161.94
2023-05-06T12:56:27.142Z,99158.84
2023-05-06T12:59:01.252Z,99157.38
2023-05-06T13:01:35.513Z,99165.75
2023-05-06T13:04:08.388Z,99157.25
2023-05-06T13:06:41.162Z,99160.06
2023-05-06T13:09:15.348Z,99150.47
2023-05-06T13:11:48.600Z,99156.88
2023-05-06T13:14:21.770Z,99160.22
2023-05-06T13:16:56.353Z,99153.94
2023-05-06T13:19:33.055Z,99144.41
2023-05-06T13:22:06.300Z,99143.59
2023-05-06T13:24:39.136Z,99149.53
2023-05-06T13:27:12.269Z,99138.59
2023-05-06T13:29:45.040Z,99141.50
2023-05-06T13:32:19.144Z,99140.56
2023-05-06T13:34:51.933Z,99142.88
2023-05-06T13:37:24.730Z,99139.53
2023-05-06T13:39:57.539Z,99146.13
2023-05-06T13:42:30.719Z,99139.56
2023-05-06T13:45:03.476Z,99133.19
2023-05-06T13:47:37.667Z,99131.59
2023-05-06T13:50:11.371Z,99131.63
2023-05-06T13:52:44.258Z,99132.16
2023-05-06T13:55:19.312Z,99123.59
2023-05-06T13:57:52.331Z,99120.97
2023-05-06T14:00:25.125Z,99120.97
2023-05-06T14:02:59.527Z,99116.34
2023-05-06T14:05:33.300Z,99119.44
2023-05-06T14:08:06.534Z,99123.22
2023-05-06T14:10:39.391Z,99113.22
2023-05-06T14:13:12.502Z,99109.88
2023-05-06T14:15:45.688Z,99114.25
2023-05-06T14:18:19.821Z,99112.41
2023-05-06T14:20:52.666Z,99111.41
2023-05-06T14:23:25.641Z,99098.22
2023-05-06T14:25:58.418Z,99093.78
2023-05-06T14:28:31.203Z,99098.47
2023-05-06T14:31:03.973Z,99099.41
2023-05-06T14:33:38.678Z,99093.31
2023-05-06T14:36:11.517Z,99096.84
2023-05-06T14:38:44.321Z,99085.72
2023-05-06T14:41:17.194Z,99091.31
2023-05-06T14:43:50.045Z,99083.66
2023-05-06T14:46:22.987Z,99086.16
2023-05-06T14:48:57.153Z,99085.94
2023-05-06T14:51:29.983Z,99075.91
2023-05-06T14:54:02.755Z,99073.84
2023-05-06T14:56:35.627Z,99068.97
2023-05-06T14:59:08.580Z,99076.16
2023-05-06T15:01:41.555Z,99070.44
2023-05-06T15:04:15.766Z,99075.13
2023-05-06T15:06:48.713Z,99074.63
2023-05-06T15:09:21.426Z,99072.03
2023-05-06T15:11:54.238Z,99068.66
2023-05-06T15:14:27.134Z,99070.06
2023-05-06T15:17:00.128Z,99068.84
2023-05-06T15:19:34.785Z,99069.06
2023-05-06T15:22:07.818Z,99070.06
2023-05-06T15:24:40.812Z,99057.75
2023-05-06T15:27:15.475Z,99061.16
2023-05-06T15:29:48.443Z,99063.78
2023-05-06T15:32:21.714Z,99065.81
2023-05-06T15:34:56.125Z,99065.81
2023-05-06T15:37:29.027Z,99069.69
2023-05-06T15:40:02.248Z,99069.22
2023-05-06T15:42:38.807Z,99074.06
2023-05-06T15:45:12.620Z,99077.75
2023-05-06T15:47:45.526Z,99068.91
2023-05-06T15:50:32.909Z,99074.59
2023-05-06T15:53:07.228Z,99072.56
2023-05-06T15:55:46.667Z,99068.38
2023-05-06T15:58:25.725Z,99072.28
2023-05-06T16:00:58.624Z,99079.25
2023-05-06T16:03:31.939Z,99079.47
2023-05-06T16:06:06.443Z,99069.34
2023-05-06T16:08:40.078Z,99067.88
2023-05-06T16:11:14.218Z,99066.84
2023-05-06T16:13:47.311Z,99068.09
2023-05-06T16:16:20.333Z,99070.97
2023-05-06T16:18:53.206Z,99072.41
2023-05-06T16:21:27.426Z,99061.13
2023-05-06T16:24:02.320Z,99068.50
2023-05-06T16:26:35.507Z,99071.91
2023-05-06T16:29:08.321Z,99072.44
2023-05-06T16:31:41.404Z,99066.25
2023-05-06T16:34:14.320Z,99069.66
2023-05-06T16:36:48.547Z,99061.91
2023-05-06T16:39:21.400Z,99068.75
2023-05-06T16:41:54.277Z,99066.38
2023-05-06T16:44:27.222Z,99063.41
2023-05-06T16:47:00.216Z,99073.22
2023-05-06T16:49:33.880Z,99067.34
2023-05-06T16:52:08.128Z,99072.34
2023-05-06T16:54:41.264Z,99061.72
2023-05-06T16:57:14.134Z,99071.88
2023-05-06T16:59:47.035Z,99065.31
2023-05-06T17:02:19.958Z,99062.03
2023-05-06T17:04:53.130Z,99057.44
2023-05-06T17:07:27.556Z,99067.84
2023-05-06T17:10:00.840Z,99062.28
2023-05-06T17:12:34.060Z,99060.50
2023-05-06T17:15:08.447Z,99061.66
2023-05-06T17:17:45.680Z,99055.19
2023-05-06T17:20:19.940Z,99054.63
2023-05-06T17:22:54.454Z,99063.50
2023-05-06T17:25:27.323Z,99052.53
2023-05-06T17:28:00.339Z,99052.50
2023-05-06T17:30:33.394Z,99048.16
2023-05-06T17:33:07.294Z,99056.38
2023-05-06T17:35:40.297Z,99050.09
2023-05-06T17:38:16.820Z,99047.97
2023-05-06T17:40:49.766Z,99052.91
2023-05-06T17:43:22.696Z,99045.28
2023-05-06T17:45:56.324Z,99046.75
2023-05-06T17:48:29.275Z,99049.47
2023-05-06T17:51:02.914Z,99039.28
2023-05-06T17:53:38.605Z,99045.34
2023-05-06T17:56:11.522Z,99036.53
2023-05-06T17:58:44.511Z,99034.66
2023-05-06T18:01:17.650Z,99038.03
2023-05-06T18:03:51.304Z,99040.25
2023-05-06T18:06:24.538Z,99044.28
2023-05-06T18:08:58.917Z,99034.84
2023-05-06T18:11:32.012Z,99033.66
2023-05-06T18:14:05.413Z,99037.47
2023-05-06T18:16:38.611Z,99040.31
2023-05-06T18:19:11.944Z,99046.38
2023-05-06T18:21:45.218Z,99041.78
2023-05-06T18:24:20.046Z,99042.44
2023-05-06T18:26:53.181Z,99042.44
2023-05-06T18:29:27.625Z,99038.09
2023-05-06T18:32:01.225Z,99040.63
2023-05-06T18:34:34.535Z,99040.91
2023-05-06T18:37:07.675Z,99039.97
2023-05-06T18:39:43.343Z,99044.28
2023-05-06T18:42:16.616Z,99042.66
2023-05-06T18:44:50.468Z,99043.53
2023-05-06T18:47:25.939Z,99046.06
2023-05-06T18:50:00.776Z,99040.91
2023-05-06T18:52:33.990Z,99039.53
2023-05-06T18:55:09.869Z,99047.84
2023-05-06T18:57:43.684Z,99047.84
2023-05-06T19:00:16.995Z,99052.81
2023-05-06T19:02:50.097Z,99049.81
2023-05-06T19:05:23.468Z,99051.97
2023-05-06T19:07:56.372Z,99046.66
2023-05-06T19:10:30.766Z,99045.63
2023-05-06T19:13:04.990Z,99047.53
2023-05-06T19:15:37.854Z,99048.25
2023-05-06T19:18:10.957Z,99049.09
2023-05-06T19:20:44.756Z,99046.94
2023-05-06T19:23:17.611Z,99050.41
2023-05-06T19:25:52.213Z,99054.03
2023-05-06T19:28:25.080Z,99064.50
2023-05-06T19:30:57.959Z,99063.47
2023-05-06T19:33:30.839Z,99052.31
2023-05-06T19:36:03.941Z,99063.66
2023-05-06T19:38:36.853Z,99059.22
2023-05-06T19:41:11.587Z,99062.81
2023-05-06T19:43:45.279Z,99057.59
2023-05-06T19:46:18.085Z,99063.47
2023-05-06T19:48:50.883Z,99061.41
2023-05-06T19:51:23.656Z,99070.81
2023-05-06T19:53:56.439Z,99076.25
2023-05-06T19:56:30.710Z,99079.66
2023-05-06T19:59:03.705Z,99080.78
2023-05-06T20:01:36.485Z,99076.16
2023-05-06T20:04:10.180Z,99081.53
2023-05-06T20:06:43.030Z,99076.66
2023-05-06T20:09:15.820Z,99078.47
2023-05-06T20:12:23.926Z,99085.19
2023-05-06T20:15:17.768Z,99073.75
2023-05-06T20:18:13.872Z,99072.38
2023-05-06T20:21:04.718Z,99084.28
2023-05-06T20:23:49.609Z,99081.66
2023-05-06T20:26:26.999Z,99073.19
2023-05-06T20:29:15.426Z,99070.81
2023-05-06T20:32:08.461Z,99073.47
2023-05-06T20:35:02.866Z,99080.97
2023-05-06T20:38:01.882Z,99081.00
2023-05-06T20:41:07.260Z,99084.22
2023-05-06T20:44:02.692Z,99078.28
2023-05-06T20:47:13.973Z,99079.03
2023-05-06T21:00:17.958Z,99078.34
2023-05-06T21:03:29.669Z,99090.19
2023-05-06T21:06:26.639Z,99089.97
2023-05-06T21:09:21.558Z,99093.56
2023-05-06T21:12:33.913Z,99087.44
2023-05-06T21:15:20.214Z,99085.28
2023-05-06T21:18:27.824Z,99084.28
2023-05-06T21:21:23.815Z,99085.00
2023-05-06T21:24:29.580Z,99091.34
2023-05-06T21:27:20.209Z,99090.06
2023-05-06T21:30:13.377Z,99089.78
2023-05-06T21:33:02.465Z,99088.13
2023-05-06T21:35:45.272Z,99080.66
2023-05-06T21:38:23.546Z,99090.47
2023-05-06T21:41:12.326Z,99083.38
2023-05-06T21:43:54.090Z,99087.34
2023-05-06T21:46:56.824Z,99089.47
2023-05-06T21:49:40.454Z,99088.78
2023-05-06T21:52:36.823Z,99086.22
2023-05-06T21:55:22.851Z,99075.50
2023-05-06T21:58:10.046Z,99075.16
2023-05-06T22:00:46.029Z,99082.88
2023-05-06T22:03:19.164Z,99082.00
2023-05-06T22:05:51.949Z,99078.19
2023-05-06T22:08:26.303Z,99077.09
2023-05-06T22:10:59.423Z,99074.63
2023-05-06T22:13:32.441Z,99078.22
2023-05-06T22:16:06.733Z,99083.38
2023-05-06T22:18:43.230Z,99086.31
2023-05-06T22:21:16.304Z,99086.88
2023-05-06T22:23:50.550Z,99087.91
2023-05-06T22:26:24.320Z,99074.97
2023-05-06T22:28:57.575Z,99084.78
2023-05-06T22:31:30.815Z,99091.59
2023-05-06T22:34:04.764Z,99087.00
2023-05-06T22:36:37.718Z,99092.72
2023-05-06T22:39:12.052Z,99093.94
2023-05-06T22:41:44.998Z,99092.38
2023-05-06T22:44:18.167Z,99086.88
2023-05-06T22:46:51.794Z,99081.50
2023-05-06T22:49:28.840Z,99086.56
2023-05-06T22:52:01.753Z,99081.28
2023-05-06T22:54:36.251Z,99087.22
2023-05-06T22:57:09.204Z,99080.84
2023-05-06T22:59:42.240Z,99077.09
2023-05-06T23:02:15.164Z,99076.91
2023-05-06T23:04:47.979Z,99087.75
2023-05-06T23:07:21.304Z,99084.47
2023-05-06T23:09:55.636Z,99094.38
2023-05-06T23:12:32.451Z,99091.03
2023-05-06T23:15:06.532Z,99084.53
2023-05-06T23:17:39.279Z,99091.81
2023-05-06T23:20:13.185Z,99085.94
2023-05-06T23:22:46.254Z,99089.31
2023-05-06T23:25:21.072Z,99096.72
2023-05-06T23:27:54.614Z,99098.63
2023-05-06T23:30:27.582Z,99084.94
2023-05-06T23:33:00.534Z,99096.53
2023-05-06T23:35:33.601Z,99091.50
2023-05-06T23:38:06.551Z,99091.66
2023-05-06T23:40:40.752Z,99095.25
2023-05-06T23:43:13.581Z,99093.94
2023-05-06T23:45:46.375Z,99092.13
2023-05-06T23:48:19.145Z,99104.59
2023-05-06T23:50:54.438Z,99095.97
2023-05-06T23:53:27.275Z,99095.19
2023-05-06T23:56:01.514Z,99097.19
2023-05-06T23:58:34.642Z,99112.25
